Map

Track Data

SID SEASON NUMBER BASIN SUBBASIN NAME ISO_TIME NATURE LAT LON WMO_WIND WMO_PRES WMO_AGENCY TRACK_TYPE DIST2LAND LANDFALL IFLAG USA_AGENCY USA_ATCF_ID USA_LAT USA_LON USA_RECORD USA_STATUS USA_WIND USA_PRES USA_SSHS USA_R34_NE USA_R34_SE USA_R34_SW USA_R34_NW USA_R50_NE USA_R50_SE USA_R50_SW USA_R50_NW USA_R64_NE USA_R64_SE USA_R64_SW USA_R64_NW USA_POCI USA_ROCI USA_RMW USA_EYE TOKYO_LAT TOKYO_LON TOKYO_GRADE TOKYO_WIND TOKYO_PRES TOKYO_R50_DIR TOKYO_R50_LONG TOKYO_R50_SHORT TOKYO_R30_DIR TOKYO_R30_LONG TOKYO_R30_SHORT TOKYO_LAND CMA_LAT CMA_LON CMA_CAT CMA_WIND CMA_PRES HKO_LAT HKO_LON HKO_CAT HKO_WIND HKO_PRES NEWDELHI_LAT NEWDELHI_LON NEWDELHI_GRADE NEWDELHI_WIND NEWDELHI_PRES NEWDELHI_CI NEWDELHI_DP NEWDELHI_POCI REUNION_LAT REUNION_LON REUNION_TYPE REUNION_WIND REUNION_PRES REUNION_TNUM REUNION_CI REUNION_RMW REUNION_R34_NE REUNION_R34_SE REUNION_R34_SW REUNION_R34_NW REUNION_R50_NE REUNION_R50_SE REUNION_R50_SW REUNION_R50_NW REUNION_R64_NE REUNION_R64_SE REUNION_R64_SW REUNION_R64_NW BOM_LAT BOM_LON BOM_TYPE BOM_WIND BOM_PRES BOM_TNUM BOM_CI BOM_RMW BOM_R34_NE BOM_R34_SE BOM_R34_SW BOM_R34_NW BOM_R50_NE BOM_R50_SE BOM_R50_SW BOM_R50_NW BOM_R64_NE BOM_R64_SE BOM_R64_SW BOM_R64_NW BOM_ROCI BOM_POCI BOM_EYE BOM_POS_METHOD BOM_PRES_METHOD NADI_LAT NADI_LON NADI_CAT NADI_WIND NADI_PRES WELLINGTON_LAT WELLINGTON_LON WELLINGTON_WIND WELLINGTON_PRES DS824_LAT DS824_LON DS824_STAGE DS824_WIND DS824_PRES TD9636_LAT TD9636_LON TD9636_STAGE TD9636_WIND TD9636_PRES TD9635_LAT TD9635_LON TD9635_WIND TD9635_PRES TD9635_ROCI NEUMANN_LAT NEUMANN_LON NEUMANN_CLASS NEUMANN_WIND NEUMANN_PRES MLC_LAT MLC_LON MLC_CLASS MLC_WIND MLC_PRES USA_GUST BOM_GUST BOM_GUST_PER REUNION_GUST REUNION_GUST_PER USA_SEAHGT USA_SEARAD_NE USA_SEARAD_SE USA_SEARAD_SW USA_SEARAD_NW STORM_SPEED STORM_DIR
1968253N12261 1968 86 EP MM NAOMI 1968-09-09 00:00:00 TS 12.1000 -99.0000 25 hurdat_epa main 455 451 O________OO___ hurdat_epa EP141968 12.1000 -99.0000 TD 25 -1 12.1000 -99.0000 TC 25 12.1000 -99.0000 1 16 285
1968253N12261 1968 86 EP MM NAOMI 1968-09-09 03:00:00 TS 12.2969 -99.7677 main 466 461 P________PP___ EP141968 12.2906 -99.7848 TD 25 -1 12.2906 -99.7848 TC 25 12.3220 -99.6990 1 15 286
1968253N12261 1968 86 EP MM NAOMI 1968-09-09 06:00:00 TS 12.5089 -100.476 25 hurdat_epa main 472 466 O________OP___ hurdat_epa EP141968 12.5000 -100.500 TD 25 -1 12.5000 -100.500 TC 25 12.5445 -100.379 1 14 289
1968253N12261 1968 86 EP MM NAOMI 1968-09-09 09:00:00 TS 12.7477 -101.080 main 472 457 P________PP___ EP141968 12.7423 -101.095 TD 25 -1 12.7423 -101.095 TC 25 12.7696 -101.019 1 12 294
1968253N12261 1968 86 EP MM NAOMI 1968-09-09 12:00:00 TS 13.0000 -101.600 25 hurdat_epa main 461 456 O________OO___ hurdat_epa EP141968 13.0000 -101.600 TD 25 -1 13.0000 -101.600 TC 25 13.0000 -101.600 1 11 297
1968253N12261 1968 86 EP MM NAOMI 1968-09-09 15:00:00 TS 13.2474 -102.074 main 468 447 P________PP___ EP141968 13.2498 -102.065 TD 25 -1 13.2498 -102.065 TC 25 13.2379 -102.108 1 10 299
1968253N12261 1968 86 EP MM NAOMI 1968-09-09 18:00:00 TS 13.4968 -102.512 25 hurdat_epa main 451 442 O________OP___ hurdat_epa EP141968 13.5000 -102.500 TD 25 -1 13.5000 -102.500 TC 25 13.4839 -102.561 1 10 300
1968253N12261 1968 86 EP MM NAOMI 1968-09-09 21:00:00 TS 13.7475 -102.957 main 451 438 P________PP___ EP141968 13.7499 -102.950 TD 25 -1 13.7499 -102.950 TC 25 13.7380 -102.983 1 10 300
1968253N12261 1968 86 EP MM NAOMI 1968-09-10 00:00:00 TS 14.0000 -103.400 25 hurdat_epa main 443 440 O________OO___ hurdat_epa EP141968 14.0000 -103.400 TD 25 -1 14.0000 -103.400 TC 25 14.0000 -103.400 1 10 300
1968253N12261 1968 86 EP MM NAOMI 1968-09-10 03:00:00 TS 14.2434 -103.853 main 447 426 P________PP___ EP141968 14.2424 -103.850 TD 25 -1 14.2424 -103.850 TC 25 14.2475 -103.867 1 10 300
1968253N12261 1968 86 EP MM NAOMI 1968-09-10 06:00:00 TS 14.5010 -104.306 25 hurdat_epa main 429 412 O________OP___ hurdat_epa EP141968 14.5000 -104.300 TD 25 -1 14.5000 -104.300 TC 25 14.5050 -104.331 1 10 302
1968253N12261 1968 86 EP MM NAOMI 1968-09-10 09:00:00 TS 14.7849 -104.756 main 415 396 P________PP___ EP141968 14.7849 -104.750 TD 25 -1 14.7849 -104.750 TC 25 14.7850 -104.779 1 11 305
1968253N12261 1968 86 EP MM NAOMI 1968-09-10 12:00:00 TS 15.1000 -105.200 25 hurdat_epa main 401 391 O________OO___ hurdat_epa EP141968 15.1000 -105.200 TD 25 -1 15.1000 -105.200 TC 25 15.1000 -105.200 1 11 306
1968253N12261 1968 86 EP MM NAOMI 1968-09-10 15:00:00 TS 15.4324 -105.667 main 400 385 P________PP___ EP141968 15.4276 -105.680 TD 25 -1 15.4276 -105.680 TC 25 15.4518 -105.615 1 11 310
1968253N12261 1968 86 EP MM NAOMI 1968-09-10 18:00:00 TS 15.8080 -106.079 25 hurdat_epa main 393 371 O________OP___ hurdat_epa EP141968 15.8000 -106.100 TD 25 -1 15.8000 -106.100 TC 25 15.8400 -105.997 1 11 319
1968253N12261 1968 86 EP MM NAOMI 1968-09-10 21:00:00 TS 16.2335 -106.382 main 376 338 P________PP___ EP141968 16.2274 -106.395 TD 25 -1 16.2274 -106.395 TC 25 16.2582 -106.331 1 10 331
1968253N12261 1968 86 EP MM NAOMI 1968-09-11 00:00:00 TS 16.7000 -106.600 25 hurdat_epa main 338 307 O________OO___ hurdat_epa EP141968 16.7000 -106.600 TD 25 -1 16.7000 -106.600 TC 25 16.7000 -106.600 2 10 339
1968253N12261 1968 86 EP MM NAOMI 1968-09-11 03:00:00 TS 17.1946 -106.776 main 307 276 P________PP___ EP141968 17.2000 -106.773 TD 25 -1 17.2000 -106.773 TC 25 17.1734 -106.790 2 10 344
1968253N12261 1968 86 EP MM NAOMI 1968-09-11 06:00:00 TS 17.6929 -106.904 25 hurdat_epa main 276 253 O________OP___ hurdat_epa EP141968 17.7000 -106.900 TD 25 -1 17.7000 -106.900 TC 25 17.6645 -106.918 2 10 347
1968253N12261 1968 86 EP MM NAOMI 1968-09-11 09:00:00 TS 18.1677 -107.003 main 245 225 P________PP___ EP141968 18.1725 -107.000 TD 35 0 18.1725 -107.000 TC 35 18.1485 -107.012 2 9 348
1968253N12261 1968 86 EP MM NAOMI 1968-09-11 12:00:00 TS 18.6000 -107.100 45 hurdat_epa main 225 216 O________OO___ hurdat_epa EP141968 18.6000 -107.100 TS 45 0 18.6000 -107.100 TC 45 18.6000 -107.100 2 8 344
1968253N12261 1968 86 EP MM NAOMI 1968-09-11 15:00:00 TS 18.9668 -107.249 main 210 208 P________PP___ EP141968 18.9650 -107.250 TS 60 0 18.9650 -107.250 TC 60 18.9738 -107.245 2 8 338
1968253N12261 1968 86 EP MM NAOMI 1968-09-11 18:00:00 TS 19.3030 -107.397 75 hurdat_epa main 213 208 O________OP___ hurdat_epa EP141968 19.3000 -107.400 HU 75 1 19.3000 -107.400 TC 75 19.3150 -107.387 2 7 340
1968253N12261 1968 86 EP MM NAOMI 1968-09-11 21:00:00 TS 19.6437 -107.514 main 208 199 P________PP___ EP141968 19.6425 -107.515 HU 75 1 19.6425 -107.515 TC 75 19.6488 -107.511 2 7 345
1968253N12261 1968 86 EP MM NAOMI 1968-09-12 00:00:00 TS 20.0000 -107.600 75 hurdat_epa main 203 199 O________OO___ hurdat_epa EP141968 20.0000 -107.600 HU 75 1 20.0000 -107.600 TC 75 20.0000 -107.600 4 8 349
1968253N12261 1968 86 EP MM NAOMI 1968-09-12 03:00:00 TS 20.3887 -107.670 main 208 208 P________PP___ EP141968 20.3850 -107.672 HU 75 1 20.3850 -107.672 TC 75 20.4033 -107.660 4 8 354
1968253N12261 1968 86 EP MM NAOMI 1968-09-12 06:00:00 TS 20.8055 -107.696 75 hurdat_epa main 212 212 O________OP___ hurdat_epa EP141968 20.8000 -107.700 HU 75 1 20.8000 -107.700 TC 75 20.8274 -107.682 4 9 359
1968253N12261 1968 86 EP MM NAOMI 1968-09-12 09:00:00 TS 21.2525 -107.671 main 230 204 P________PP___ EP141968 21.2500 -107.673 HU 75 1 21.2500 -107.673 TC 75 21.2627 -107.663 4 9 6
1968253N12261 1968 86 EP MM NAOMI 1968-09-12 12:00:00 TS 21.7000 -107.600 75 hurdat_epa main 204 166 O________OO___ hurdat_epa EP141968 21.7000 -107.600 HU 75 1 21.7000 -107.600 TC 75 21.7000 -107.600 4 9 10
1968253N12261 1968 86 EP MM NAOMI 1968-09-12 15:00:00 TS 22.1063 -107.516 main 166 128 P________PP___ EP141968 22.1000 -107.522 HU 75 1 22.1000 -107.522 TC 75 22.1317 -107.492 4 8 13
1968253N12261 1968 86 EP MM NAOMI 1968-09-12 18:00:00 TS 22.5091 -107.392 75 hurdat_epa main 128 97 O________OP___ hurdat_epa EP141968 22.5000 -107.400 HU 75 1 22.5000 -107.400 TC 75 22.5577 -107.349 4 8 16
1968253N12261 1968 86 EP MM NAOMI 1968-09-12 21:00:00 TS 22.8796 -107.270 main 97 37 P________PP___ EP141968 22.8671 -107.281 HU 75 1 22.8671 -107.281 TC 75 22.9799 -107.181 4 10 22
1968253N12261 1968 86 EP MM NAOMI 1968-09-13 00:00:00 TS 23.4000 -107.000 75 hurdat_epa main 37 0 O________OO___ hurdat_epa EP141968 23.4000 -107.000 HU 75 1 23.4000 -107.000 TC 75 23.4000 -107.000 6 15 29
1968253N12261 1968 86 EP MM NAOMI 1968-09-13 03:00:00 TS 24.1771 -106.482 main 0 0 P________P____ EP141968 24.1771 -106.482 HU 60 0 24.1771 -106.482 TC 55 6 22 32
1968253N12261 1968 86 EP MM NAOMI 1968-09-13 06:00:00 MX 25.3000 -105.700 45 hurdat_epa main 0 0 O________O____ hurdat_epa EP141968 25.3000 -105.700 TS 45 0 25.3000 -105.700 35 6 31 32
1968253N12261 1968 86 EP MM NAOMI 1968-09-13 09:00:00 MX 26.7973 -104.677 main 0 0 P________P____ EP141968 26.7973 -104.677 TS 35 0 26.7973 -104.677 30 6 38 32
1968253N12261 1968 86 EP MM NAOMI 1968-09-13 12:00:00 MX 28.5000 -103.500 25 hurdat_epa main 0 O________O____ hurdat_epa EP141968 28.5000 -103.500 TD 25 -1 28.5000 -103.500 25 40 31

About IBTrACS Database

This database is a web-friendly format of International Best Track Archive for Climate Stewardship (IBTrACS), a global best track data archive curated by NOAA dating back to 1842.

Updated: 2021-12-06